aviador You're here:

VOCB Decoded Metar

COIMBATORE in INDIA
Report Time2018-06-18 15:00:00
UTC Time2018-06-18 15:26:17
Flight Rules mvfr MVFR
Wind200° at 10 kt
W.Decomp.*RWY 23: 8.8 kt HW 4.7 kt LCW
W.Rank200° ranks 1
Current wind is above 200° avg. (7.1)
Visibility6000 m
Phenomena:N/A
Clouds:Few 015 Hf
Scattered 080 Hf
Expected CloudBase > 2,000 ft AGL from Temp-Dew spread
CeilingNone
Temp26°C (ISA +14)
Dew Point21°C (74% RH)
QNH1011 hPa
Density Alt3,278 ft
Elevation1,309 ft
Report Wrong Elevation
Raw Report
METAR VOCB 181500Z 20010KT 6000 FEW015 SCT080 26/21 Q1011 NOSIG=

Extra information for VOCB:More info

Metar Taf Metar & Taf Last 4 Metars F.Rules Stats Wind Profile Meteogram Temp Stats Airport Information Weather charts Add Link Nearby VenuesMetar ALERT Operation Metar Decoded Social comments